sensor_id;sensor_type;location;lat;lon;timestamp;temperature;humidity
43151;DHT22;28755;51.478;5.702;2023-06-10T00:02:00;22.80;99.90
43151;DHT22;28755;51.478;5.702;2023-06-10T00:04:27;22.70;99.90
43151;DHT22;28755;51.478;5.702;2023-06-10T00:06:52;22.70;99.90
43151;DHT22;28755;51.478;5.702;2023-06-10T00:09:19;22.60;99.90
43151;DHT22;28755;51.478;5.702;2023-06-10T00:11:46;22.50;99.90
43151;DHT22;28755;51.478;5.702;2023-06-10T00:14:13;22.50;99.90
43151;DHT22;28755;51.478;5.702;2023-06-10T00:16:39;22.40;99.90
43151;DHT22;28755;51.478;5.702;2023-06-10T00:19:05;22.40;99.90
43151;DHT22;28755;51.478;5.702;2023-06-10T00:21:32;22.30;99.90
43151;DHT22;28755;51.478;5.702;2023-06-10T00:24:06;22.30;99.90
43151;DHT22;28755;51.478;5.702;2023-06-10T00:26:33;22.30;99.90
43151;DHT22;28755;51.478;5.702;2023-06-10T00:28:59;22.20;99.90
43151;DHT22;28755;51.478;5.702;2023-06-10T00:31:25;22.20;99.90
43151;DHT22;28755;51.478;5.702;2023-06-10T00:33:52;22.20;99.90
43151;DHT22;28755;51.478;5.702;2023-06-10T00:36:17;22.10;99.90
43151;DHT22;28755;51.478;5.702;2023-06-10T00:38:43;22.10;99.90
43151;DHT22;28755;51.478;5.702;2023-06-10T00:41:08;22.00;99.90
43151;DHT22;28755;51.478;5.702;2023-06-10T00:43:34;22.00;99.90
43151;DHT22;28755;51.478;5.702;2023-06-10T00:46:00;21.90;99.90
43151;DHT22;28755;51.478;5.702;2023-06-10T00:48:26;21.90;99.90
43151;DHT22;28755;51.478;5.702;2023-06-10T00:50:52;21.80;99.90
43151;DHT22;28755;51.478;5.702;2023-06-10T00:53:18;21.80;99.90
43151;DHT22;28755;51.478;5.702;2023-06-10T00:55:44;21.70;99.90
43151;DHT22;28755;51.478;5.702;2023-06-10T00:58:10;21.70;99.90
43151;DHT22;28755;51.478;5.702;2023-06-10T01:00:36;21.60;99.90
43151;DHT22;28755;51.478;5.702;2023-06-10T01:03:03;21.60;99.90
43151;DHT22;28755;51.478;5.702;2023-06-10T01:05:33;21.50;99.90
43151;DHT22;28755;51.478;5.702;2023-06-10T01:08:23;21.50;99.90
43151;DHT22;28755;51.478;5.702;2023-06-10T01:10:57;21.40;99.90
43151;DHT22;28755;51.478;5.702;2023-06-10T01:13:25;21.40;99.90
43151;DHT22;28755;51.478;5.702;2023-06-10T01:15:57;21.20;99.90
43151;DHT22;28755;51.478;5.702;2023-06-10T01:18:22;21.20;99.90
43151;DHT22;28755;51.478;5.702;2023-06-10T01:20:49;21.20;99.90
43151;DHT22;28755;51.478;5.702;2023-06-10T01:23:15;21.10;99.90
43151;DHT22;28755;51.478;5.702;2023-06-10T01:25:52;21.10;99.90
43151;DHT22;28755;51.478;5.702;2023-06-10T01:31:15;20.90;99.90
43151;DHT22;28755;51.478;5.702;2023-06-10T01:33:46;20.80;99.90
43151;DHT22;28755;51.478;5.702;2023-06-10T01:36:14;20.80;99.90
43151;DHT22;28755;51.478;5.702;2023-06-10T01:38:45;20.70;99.90
43151;DHT22;28755;51.478;5.702;2023-06-10T01:41:13;20.70;99.90
43151;DHT22;28755;51.478;5.702;2023-06-10T01:43:39;20.70;99.90
43151;DHT22;28755;51.478;5.702;2023-06-10T01:46:05;20.60;99.90
43151;DHT22;28755;51.478;5.702;2023-06-10T01:48:32;20.60;99.90
43151;DHT22;28755;51.478;5.702;2023-06-10T01:50:57;20.60;99.90
43151;DHT22;28755;51.478;5.702;2023-06-10T01:53:23;20.50;99.90
43151;DHT22;28755;51.478;5.702;2023-06-10T01:55:49;20.50;99.90
43151;DHT22;28755;51.478;5.702;2023-06-10T01:58:14;20.40;99.90
43151;DHT22;28755;51.478;5.702;2023-06-10T02:00:40;20.40;99.90
43151;DHT22;28755;51.478;5.702;2023-06-10T02:03:06;20.40;99.90
43151;DHT22;28755;51.478;5.702;2023-06-10T02:05:31;20.30;99.90
43151;DHT22;28755;51.478;5.702;2023-06-10T02:07:57;20.20;99.90
43151;DHT22;28755;51.478;5.702;2023-06-10T02:10:23;20.20;99.90
43151;DHT22;28755;51.478;5.702;2023-06-10T02:12:48;20.10;99.90
43151;DHT22;28755;51.478;5.702;2023-06-10T02:15:14;20.10;99.90
43151;DHT22;28755;51.478;5.702;2023-06-10T02:17:40;20.00;99.90
43151;DHT22;28755;51.478;5.702;2023-06-10T02:20:06;20.00;99.90
43151;DHT22;28755;51.478;5.702;2023-06-10T02:22:32;19.90;99.90
43151;DHT22;28755;51.478;5.702;2023-06-10T02:24:58;19.90;99.90
43151;DHT22;28755;51.478;5.702;2023-06-10T02:27:24;19.80;99.90
43151;DHT22;28755;51.478;5.702;2023-06-10T02:29:49;19.80;99.90
43151;DHT22;28755;51.478;5.702;2023-06-10T02:32:15;19.90;99.90
43151;DHT22;28755;51.478;5.702;2023-06-10T02:34:41;19.80;99.90
43151;DHT22;28755;51.478;5.702;2023-06-10T02:37:08;19.70;99.90
43151;DHT22;28755;51.478;5.702;2023-06-10T02:39:33;19.70;99.90
43151;DHT22;28755;51.478;5.702;2023-06-10T02:41:59;19.70;99.90
43151;DHT22;28755;51.478;5.702;2023-06-10T02:44:25;19.60;99.90
43151;DHT22;28755;51.478;5.702;2023-06-10T02:46:50;19.60;99.90
43151;DHT22;28755;51.478;5.702;2023-06-10T02:49:16;19.50;99.90
43151;DHT22;28755;51.478;5.702;2023-06-10T02:51:41;19.50;99.90
43151;DHT22;28755;51.478;5.702;2023-06-10T02:54:07;19.50;99.90
43151;DHT22;28755;51.478;5.702;2023-06-10T02:56:33;19.50;99.90
43151;DHT22;28755;51.478;5.702;2023-06-10T02:58:58;19.50;99.90
43151;DHT22;28755;51.478;5.702;2023-06-10T03:01:24;19.40;99.90
43151;DHT22;28755;51.478;5.702;2023-06-10T03:03:50;19.30;99.90
43151;DHT22;28755;51.478;5.702;2023-06-10T03:06:16;19.30;99.90
43151;DHT22;28755;51.478;5.702;2023-06-10T03:08:41;19.30;99.90
43151;DHT22;28755;51.478;5.702;2023-06-10T03:11:07;19.30;99.90
43151;DHT22;28755;51.478;5.702;2023-06-10T03:13:33;19.30;99.90
43151;DHT22;28755;51.478;5.702;2023-06-10T03:15:58;19.30;99.90
43151;DHT22;28755;51.478;5.702;2023-06-10T03:18:27;19.20;99.90
43151;DHT22;28755;51.478;5.702;2023-06-10T03:20:54;19.20;99.90
43151;DHT22;28755;51.478;5.702;2023-06-10T03:23:20;19.20;99.90
43151;DHT22;28755;51.478;5.702;2023-06-10T03:25:46;19.20;99.90
43151;DHT22;28755;51.478;5.702;2023-06-10T03:28:11;19.20;99.90
43151;DHT22;28755;51.478;5.702;2023-06-10T03:30:37;19.20;99.90
43151;DHT22;28755;51.478;5.702;2023-06-10T03:33:03;19.10;99.90
43151;DHT22;28755;51.478;5.702;2023-06-10T03:35:29;19.10;99.90
43151;DHT22;28755;51.478;5.702;2023-06-10T03:37:55;19.10;99.90
43151;DHT22;28755;51.478;5.702;2023-06-10T03:40:20;19.10;99.90
43151;DHT22;28755;51.478;5.702;2023-06-10T03:42:46;19.00;99.90
43151;DHT22;28755;51.478;5.702;2023-06-10T03:45:11;19.10;99.90
43151;DHT22;28755;51.478;5.702;2023-06-10T03:47:38;19.00;99.90
43151;DHT22;28755;51.478;5.702;2023-06-10T03:50:07;19.00;99.90
43151;DHT22;28755;51.478;5.702;2023-06-10T03:52:33;19.00;99.90
43151;DHT22;28755;51.478;5.702;2023-06-10T03:54:59;19.10;99.90
43151;DHT22;28755;51.478;5.702;2023-06-10T03:57:25;19.00;99.90
43151;DHT22;28755;51.478;5.702;2023-06-10T03:59:51;19.00;99.90
43151;DHT22;28755;51.478;5.702;2023-06-10T04:02:16;19.00;99.90
43151;DHT22;28755;51.478;5.702;2023-06-10T04:04:42;19.00;99.90
43151;DHT22;28755;51.478;5.702;2023-06-10T04:07:08;19.00;99.90
43151;DHT22;28755;51.478;5.702;2023-06-10T04:09:34;19.00;99.90
43151;DHT22;28755;51.478;5.702;2023-06-10T04:12:01;19.00;99.90
43151;DHT22;28755;51.478;5.702;2023-06-10T04:14:27;19.00;99.90
43151;DHT22;28755;51.478;5.702;2023-06-10T04:16:53;19.10;99.90
43151;DHT22;28755;51.478;5.702;2023-06-10T04:19:18;19.20;99.90
43151;DHT22;28755;51.478;5.702;2023-06-10T04:21:44;19.10;99.90
43151;DHT22;28755;51.478;5.702;2023-06-10T04:24:09;19.20;99.90
43151;DHT22;28755;51.478;5.702;2023-06-10T04:26:35;19.20;99.90
43151;DHT22;28755;51.478;5.702;2023-06-10T04:29:01;19.30;99.90
43151;DHT22;28755;51.478;5.702;2023-06-10T04:31:27;19.30;99.90
43151;DHT22;28755;51.478;5.702;2023-06-10T04:33:53;19.30;99.90
43151;DHT22;28755;51.478;5.702;2023-06-10T04:36:19;19.40;99.90
43151;DHT22;28755;51.478;5.702;2023-06-10T04:38:44;19.50;99.90
43151;DHT22;28755;51.478;5.702;2023-06-10T04:41:10;19.50;99.90
43151;DHT22;28755;51.478;5.702;2023-06-10T04:43:35;19.60;99.90
43151;DHT22;28755;51.478;5.702;2023-06-10T04:46:02;19.60;99.90
43151;DHT22;28755;51.478;5.702;2023-06-10T04:48:27;19.70;99.90
43151;DHT22;28755;51.478;5.702;2023-06-10T04:50:53;19.80;99.90
43151;DHT22;28755;51.478;5.702;2023-06-10T04:53:18;19.90;99.90
43151;DHT22;28755;51.478;5.702;2023-06-10T04:55:44;19.80;99.90
43151;DHT22;28755;51.478;5.702;2023-06-10T04:58:10;19.90;99.90
43151;DHT22;28755;51.478;5.702;2023-06-10T05:00:35;20.00;99.90
43151;DHT22;28755;51.478;5.702;2023-06-10T05:03:01;20.00;99.90
43151;DHT22;28755;51.478;5.702;2023-06-10T05:05:26;20.10;99.90
43151;DHT22;28755;51.478;5.702;2023-06-10T05:07:52;20.10;99.90
43151;DHT22;28755;51.478;5.702;2023-06-10T05:10:17;20.10;99.90
43151;DHT22;28755;51.478;5.702;2023-06-10T05:12:43;20.20;99.90
43151;DHT22;28755;51.478;5.702;2023-06-10T05:15:09;20.30;99.90
43151;DHT22;28755;51.478;5.702;2023-06-10T05:17:35;20.30;99.90
43151;DHT22;28755;51.478;5.702;2023-06-10T05:20:01;20.40;99.90
43151;DHT22;28755;51.478;5.702;2023-06-10T05:22:27;20.40;99.90
43151;DHT22;28755;51.478;5.702;2023-06-10T05:24:53;20.50;99.90
43151;DHT22;28755;51.478;5.702;2023-06-10T05:27:19;20.60;99.90
43151;DHT22;28755;51.478;5.702;2023-06-10T05:29:44;20.70;99.90
43151;DHT22;28755;51.478;5.702;2023-06-10T05:32:11;20.70;99.90
43151;DHT22;28755;51.478;5.702;2023-06-10T05:34:36;20.80;99.90
43151;DHT22;28755;51.478;5.702;2023-06-10T05:37:03;20.90;99.90
43151;DHT22;28755;51.478;5.702;2023-06-10T05:39:29;21.00;99.90
43151;DHT22;28755;51.478;5.702;2023-06-10T05:41:56;21.00;99.90
43151;DHT22;28755;51.478;5.702;2023-06-10T05:44:24;21.20;99.90
43151;DHT22;28755;51.478;5.702;2023-06-10T05:46:50;21.20;99.90
43151;DHT22;28755;51.478;5.702;2023-06-10T05:49:15;21.30;99.90
43151;DHT22;28755;51.478;5.702;2023-06-10T05:51:41;21.30;99.90
43151;DHT22;28755;51.478;5.702;2023-06-10T05:54:06;21.40;99.90
43151;DHT22;28755;51.478;5.702;2023-06-10T05:56:32;21.50;99.90
43151;DHT22;28755;51.478;5.702;2023-06-10T05:58:57;21.70;99.90
43151;DHT22;28755;51.478;5.702;2023-06-10T06:01:23;21.80;99.90
43151;DHT22;28755;51.478;5.702;2023-06-10T06:03:48;21.80;99.90
43151;DHT22;28755;51.478;5.702;2023-06-10T06:06:14;22.00;99.90
43151;DHT22;28755;51.478;5.702;2023-06-10T06:08:39;22.10;99.90
43151;DHT22;28755;51.478;5.702;2023-06-10T06:11:05;22.20;99.90
43151;DHT22;28755;51.478;5.702;2023-06-10T06:13:31;22.30;99.90
43151;DHT22;28755;51.478;5.702;2023-06-10T06:15:56;22.40;99.90
43151;DHT22;28755;51.478;5.702;2023-06-10T06:18:22;22.50;99.90
43151;DHT22;28755;51.478;5.702;2023-06-10T06:20:47;22.50;99.90
43151;DHT22;28755;51.478;5.702;2023-06-10T06:23:13;22.60;99.90
43151;DHT22;28755;51.478;5.702;2023-06-10T06:25:39;22.60;99.90
43151;DHT22;28755;51.478;5.702;2023-06-10T06:28:09;22.70;99.90
43151;DHT22;28755;51.478;5.702;2023-06-10T06:30:35;23.10;99.90
43151;DHT22;28755;51.478;5.702;2023-06-10T06:33:01;23.00;99.90
43151;DHT22;28755;51.478;5.702;2023-06-10T06:35:27;23.20;99.90
43151;DHT22;28755;51.478;5.702;2023-06-10T06:37:52;23.30;99.90
43151;DHT22;28755;51.478;5.702;2023-06-10T06:40:18;23.30;99.90
43151;DHT22;28755;51.478;5.702;2023-06-10T06:42:44;23.40;99.90
43151;DHT22;28755;51.478;5.702;2023-06-10T06:45:10;23.40;99.90
43151;DHT22;28755;51.478;5.702;2023-06-10T06:47:35;23.40;99.90
43151;DHT22;28755;51.478;5.702;2023-06-10T06:50:01;23.80;99.90
43151;DHT22;28755;51.478;5.702;2023-06-10T06:52:28;23.80;99.90
43151;DHT22;28755;51.478;5.702;2023-06-10T06:54:54;24.00;99.90
43151;DHT22;28755;51.478;5.702;2023-06-10T06:57:19;24.00;99.90
43151;DHT22;28755;51.478;5.702;2023-06-10T06:59:45;24.20;99.90
43151;DHT22;28755;51.478;5.702;2023-06-10T07:02:10;24.40;99.90
43151;DHT22;28755;51.478;5.702;2023-06-10T07:04:36;24.40;99.90
43151;DHT22;28755;51.478;5.702;2023-06-10T07:07:02;24.50;99.90
43151;DHT22;28755;51.478;5.702;2023-06-10T07:09:28;24.60;99.90
43151;DHT22;28755;51.478;5.702;2023-06-10T07:11:53;24.70;99.90
43151;DHT22;28755;51.478;5.702;2023-06-10T07:14:19;24.70;99.90
43151;DHT22;28755;51.478;5.702;2023-06-10T07:16:44;25.00;99.90
43151;DHT22;28755;51.478;5.702;2023-06-10T07:19:11;25.30;99.90
43151;DHT22;28755;51.478;5.702;2023-06-10T07:21:37;25.40;99.90
43151;DHT22;28755;51.478;5.702;2023-06-10T07:24:03;25.50;99.90
43151;DHT22;28755;51.478;5.702;2023-06-10T07:26:29;25.60;99.90
43151;DHT22;28755;51.478;5.702;2023-06-10T07:28:54;25.80;99.90
43151;DHT22;28755;51.478;5.702;2023-06-10T07:31:20;25.90;99.90
43151;DHT22;28755;51.478;5.702;2023-06-10T07:33:46;26.20;99.90
43151;DHT22;28755;51.478;5.702;2023-06-10T07:36:12;26.40;99.90
43151;DHT22;28755;51.478;5.702;2023-06-10T07:38:37;26.60;99.90
43151;DHT22;28755;51.478;5.702;2023-06-10T07:41:03;26.50;99.90
43151;DHT22;28755;51.478;5.702;2023-06-10T07:43:29;26.60;99.90
43151;DHT22;28755;51.478;5.702;2023-06-10T07:45:54;26.80;99.90
43151;DHT22;28755;51.478;5.702;2023-06-10T07:48:20;26.80;99.90
43151;DHT22;28755;51.478;5.702;2023-06-10T07:50:46;26.90;99.90
43151;DHT22;28755;51.478;5.702;2023-06-10T07:53:11;27.40;99.90
43151;DHT22;28755;51.478;5.702;2023-06-10T07:55:37;27.50;99.90
43151;DHT22;28755;51.478;5.702;2023-06-10T07:58:02;27.90;99.90
43151;DHT22;28755;51.478;5.702;2023-06-10T08:00:28;28.10;99.90
43151;DHT22;28755;51.478;5.702;2023-06-10T08:02:53;28.20;99.90
43151;DHT22;28755;51.478;5.702;2023-06-10T08:05:19;28.40;99.90
43151;DHT22;28755;51.478;5.702;2023-06-10T08:07:45;28.40;99.90
43151;DHT22;28755;51.478;5.702;2023-06-10T08:10:11;28.50;99.90
43151;DHT22;28755;51.478;5.702;2023-06-10T08:12:36;28.80;99.90
43151;DHT22;28755;51.478;5.702;2023-06-10T08:15:02;29.30;99.90
43151;DHT22;28755;51.478;5.702;2023-06-10T08:17:29;29.30;99.90
43151;DHT22;28755;51.478;5.702;2023-06-10T08:19:55;29.40;99.90
43151;DHT22;28755;51.478;5.702;2023-06-10T08:22:21;29.10;99.90
43151;DHT22;28755;51.478;5.702;2023-06-10T08:24:46;29.00;99.90
43151;DHT22;28755;51.478;5.702;2023-06-10T08:27:12;29.50;99.90
43151;DHT22;28755;51.478;5.702;2023-06-10T08:29:38;29.40;99.90
43151;DHT22;28755;51.478;5.702;2023-06-10T08:32:04;29.40;99.90
43151;DHT22;28755;51.478;5.702;2023-06-10T08:34:30;29.50;99.90
43151;DHT22;28755;51.478;5.702;2023-06-10T08:36:55;29.60;99.90
43151;DHT22;28755;51.478;5.702;2023-06-10T08:39:22;29.80;99.90
43151;DHT22;28755;51.478;5.702;2023-06-10T08:44:33;30.70;99.70
43151;DHT22;28755;51.478;5.702;2023-06-10T08:47:10;30.90;99.70
43151;DHT22;28755;51.478;5.702;2023-06-10T08:49:43;31.20;99.40
43151;DHT22;28755;51.478;5.702;2023-06-10T08:52:11;31.50;98.20
43151;DHT22;28755;51.478;5.702;2023-06-10T08:54:40;31.70;98.40
43151;DHT22;28755;51.478;5.702;2023-06-10T08:57:07;31.70;97.90
43151;DHT22;28755;51.478;5.702;2023-06-10T08:59:33;31.70;97.70
43151;DHT22;28755;51.478;5.702;2023-06-10T09:02:00;32.00;97.50
43151;DHT22;28755;51.478;5.702;2023-06-10T09:04:26;32.20;97.50
43151;DHT22;28755;51.478;5.702;2023-06-10T09:06:52;32.40;97.30
43151;DHT22;28755;51.478;5.702;2023-06-10T09:09:19;32.50;96.70
43151;DHT22;28755;51.478;5.702;2023-06-10T09:11:45;32.10;96.80
43151;DHT22;28755;51.478;5.702;2023-06-10T09:14:11;32.00;96.50
43151;DHT22;28755;51.478;5.702;2023-06-10T09:16:42;32.40;96.70
43151;DHT22;28755;51.478;5.702;2023-06-10T09:19:07;32.80;96.50
43151;DHT22;28755;51.478;5.702;2023-06-10T09:21:34;32.80;96.30
43151;DHT22;28755;51.478;5.702;2023-06-10T09:24:01;32.90;96.30
43151;DHT22;28755;51.478;5.702;2023-06-10T09:26:30;32.60;96.10
43151;DHT22;28755;51.478;5.702;2023-06-10T09:29:06;32.70;96.10
43151;DHT22;28755;51.478;5.702;2023-06-10T09:31:35;33.00;95.90
43151;DHT22;28755;51.478;5.702;2023-06-10T09:34:11;33.10;95.80
43151;DHT22;28755;51.478;5.702;2023-06-10T09:36:38;33.40;95.40
43151;DHT22;28755;51.478;5.702;2023-06-10T09:39:05;33.70;95.60
43151;DHT22;28755;51.478;5.702;2023-06-10T09:41:35;34.20;95.60
43151;DHT22;28755;51.478;5.702;2023-06-10T09:44:01;34.80;95.00
43151;DHT22;28755;51.478;5.702;2023-06-10T09:46:31;34.70;94.90
43151;DHT22;28755;51.478;5.702;2023-06-10T09:48:58;35.40;94.50
43151;DHT22;28755;51.478;5.702;2023-06-10T09:51:24;35.60;94.30
43151;DHT22;28755;51.478;5.702;2023-06-10T09:53:53;35.40;94.10
43151;DHT22;28755;51.478;5.702;2023-06-10T09:56:19;35.50;94.00
43151;DHT22;28755;51.478;5.702;2023-06-10T09:58:45;35.80;93.70
43151;DHT22;28755;51.478;5.702;2023-06-10T10:01:13;36.10;93.30
43151;DHT22;28755;51.478;5.702;2023-06-10T10:03:44;36.60;93.10
43151;DHT22;28755;51.478;5.702;2023-06-10T10:06:11;36.90;92.40
43151;DHT22;28755;51.478;5.702;2023-06-10T10:08:36;36.40;92.40
43151;DHT22;28755;51.478;5.702;2023-06-10T10:11:02;36.30;92.40
43151;DHT22;28755;51.478;5.702;2023-06-10T10:13:29;36.60;92.40
43151;DHT22;28755;51.478;5.702;2023-06-10T10:16:02;37.30;92.10
43151;DHT22;28755;51.478;5.702;2023-06-10T10:18:29;36.40;91.70
43151;DHT22;28755;51.478;5.702;2023-06-10T10:20:59;37.10;91.60
43151;DHT22;28755;51.478;5.702;2023-06-10T10:23:31;37.60;91.10
43151;DHT22;28755;51.478;5.702;2023-06-10T10:25:57;37.10;91.10
43151;DHT22;28755;51.478;5.702;2023-06-10T10:28:34;37.50;91.30
43151;DHT22;28755;51.478;5.702;2023-06-10T10:31:10;38.10;90.70
43151;DHT22;28755;51.478;5.702;2023-06-10T10:33:54;38.30;90.40
43151;DHT22;28755;51.478;5.702;2023-06-10T10:36:21;38.50;90.10
43151;DHT22;28755;51.478;5.702;2023-06-10T10:38:48;38.90;90.30
43151;DHT22;28755;51.478;5.702;2023-06-10T10:41:15;38.00;90.00
43151;DHT22;28755;51.478;5.702;2023-06-10T10:43:43;38.30;88.90
43151;DHT22;28755;51.478;5.702;2023-06-10T10:46:12;39.00;88.60
43151;DHT22;28755;51.478;5.702;2023-06-10T10:48:39;39.40;88.90
43151;DHT22;28755;51.478;5.702;2023-06-10T10:51:07;39.70;87.10
43151;DHT22;28755;51.478;5.702;2023-06-10T10:53:33;39.00;86.40
43151;DHT22;28755;51.478;5.702;2023-06-10T10:56:13;39.20;86.50
43151;DHT22;28755;51.478;5.702;2023-06-10T10:58:39;39.70;86.10
43151;DHT22;28755;51.478;5.702;2023-06-10T11:01:12;39.50;85.90
43151;DHT22;28755;51.478;5.702;2023-06-10T11:03:45;39.50;85.50
43151;DHT22;28755;51.478;5.702;2023-06-10T11:06:16;39.40;84.40
43151;DHT22;28755;51.478;5.702;2023-06-10T11:11:24;39.60;83.10
43151;DHT22;28755;51.478;5.702;2023-06-10T11:14:06;39.60;83.90
43151;DHT22;28755;51.478;5.702;2023-06-10T11:16:43;39.50;83.80
43151;DHT22;28755;51.478;5.702;2023-06-10T11:19:09;39.70;81.30
43151;DHT22;28755;51.478;5.702;2023-06-10T11:22:00;39.80;81.20
43151;DHT22;28755;51.478;5.702;2023-06-10T11:24:27;40.20;81.90
43151;DHT22;28755;51.478;5.702;2023-06-10T11:26:53;40.00;81.60
43151;DHT22;28755;51.478;5.702;2023-06-10T11:29:18;39.90;79.80
43151;DHT22;28755;51.478;5.702;2023-06-10T11:31:49;39.80;79.80
43151;DHT22;28755;51.478;5.702;2023-06-10T11:34:21;39.70;79.20
43151;DHT22;28755;51.478;5.702;2023-06-10T11:36:49;40.40;79.80
43151;DHT22;28755;51.478;5.702;2023-06-10T11:39:15;39.90;79.30
43151;DHT22;28755;51.478;5.702;2023-06-10T11:41:40;39.70;79.70
43151;DHT22;28755;51.478;5.702;2023-06-10T11:44:10;40.20;79.60
43151;DHT22;28755;51.478;5.702;2023-06-10T11:46:37;40.60;78.70
43151;DHT22;28755;51.478;5.702;2023-06-10T11:49:03;40.30;78.70
43151;DHT22;28755;51.478;5.702;2023-06-10T11:54:38;39.60;78.70
43151;DHT22;28755;51.478;5.702;2023-06-10T11:57:04;39.20;77.70
43151;DHT22;28755;51.478;5.702;2023-06-10T11:59:30;38.60;77.90
43151;DHT22;28755;51.478;5.702;2023-06-10T12:01:56;38.40;78.60
43151;DHT22;28755;51.478;5.702;2023-06-10T12:04:22;38.10;78.20
43151;DHT22;28755;51.478;5.702;2023-06-10T12:06:49;37.30;78.60
43151;DHT22;28755;51.478;5.702;2023-06-10T12:11:42;35.60;79.80
43151;DHT22;28755;51.478;5.702;2023-06-10T12:14:08;34.90;80.00
43151;DHT22;28755;51.478;5.702;2023-06-10T12:16:34;34.20;78.30
43151;DHT22;28755;51.478;5.702;2023-06-10T12:19:04;33.70;79.20
43151;DHT22;28755;51.478;5.702;2023-06-10T12:21:32;33.50;80.10
43151;DHT22;28755;51.478;5.702;2023-06-10T12:24:11;33.50;80.30
43151;DHT22;28755;51.478;5.702;2023-06-10T12:26:41;33.30;78.90
43151;DHT22;28755;51.478;5.702;2023-06-10T12:29:24;33.30;79.40
43151;DHT22;28755;51.478;5.702;2023-06-10T12:31:57;33.40;80.20
43151;DHT22;28755;51.478;5.702;2023-06-10T12:36:59;33.60;79.60
43151;DHT22;28755;51.478;5.702;2023-06-10T12:39:25;33.50;80.30
43151;DHT22;28755;51.478;5.702;2023-06-10T12:41:52;33.10;80.60
43151;DHT22;28755;51.478;5.702;2023-06-10T12:44:17;33.10;80.90
43151;DHT22;28755;51.478;5.702;2023-06-10T12:46:43;33.50;80.30
43151;DHT22;28755;51.478;5.702;2023-06-10T12:49:19;33.70;80.80
43151;DHT22;28755;51.478;5.702;2023-06-10T12:51:45;33.70;80.40
43151;DHT22;28755;51.478;5.702;2023-06-10T12:54:11;33.60;80.90
43151;DHT22;28755;51.478;5.702;2023-06-10T12:56:38;33.30;79.80
43151;DHT22;28755;51.478;5.702;2023-06-10T12:59:03;33.10;80.30
43151;DHT22;28755;51.478;5.702;2023-06-10T13:01:29;33.10;80.60
43151;DHT22;28755;51.478;5.702;2023-06-10T13:03:56;32.80;81.20
43151;DHT22;28755;51.478;5.702;2023-06-10T13:06:22;33.00;80.50
43151;DHT22;28755;51.478;5.702;2023-06-10T13:08:48;33.10;80.20
43151;DHT22;28755;51.478;5.702;2023-06-10T13:11:14;32.90;78.80
43151;DHT22;28755;51.478;5.702;2023-06-10T13:13:39;32.90;78.90
43151;DHT22;28755;51.478;5.702;2023-06-10T13:16:05;32.60;78.70
43151;DHT22;28755;51.478;5.702;2023-06-10T13:18:32;32.40;79.20
43151;DHT22;28755;51.478;5.702;2023-06-10T13:21:03;32.40;79.40
43151;DHT22;28755;51.478;5.702;2023-06-10T13:23:29;32.40;80.00
43151;DHT22;28755;51.478;5.702;2023-06-10T13:25:55;32.60;80.30
43151;DHT22;28755;51.478;5.702;2023-06-10T13:28:21;32.60;79.40
43151;DHT22;28755;51.478;5.702;2023-06-10T13:30:46;32.80;79.80
43151;DHT22;28755;51.478;5.702;2023-06-10T13:33:12;32.70;79.60
43151;DHT22;28755;51.478;5.702;2023-06-10T13:35:37;32.70;78.30
43151;DHT22;28755;51.478;5.702;2023-06-10T13:38:03;32.80;77.50
43151;DHT22;28755;51.478;5.702;2023-06-10T13:40:28;32.70;77.20
43151;DHT22;28755;51.478;5.702;2023-06-10T13:42:54;32.80;76.40
43151;DHT22;28755;51.478;5.702;2023-06-10T13:45:20;32.90;77.90
43151;DHT22;28755;51.478;5.702;2023-06-10T13:47:46;33.00;77.80
43151;DHT22;28755;51.478;5.702;2023-06-10T13:50:11;33.20;76.30
43151;DHT22;28755;51.478;5.702;2023-06-10T13:52:38;33.10;76.10
43151;DHT22;28755;51.478;5.702;2023-06-10T13:55:04;32.80;78.10
43151;DHT22;28755;51.478;5.702;2023-06-10T13:57:30;32.90;78.20
43151;DHT22;28755;51.478;5.702;2023-06-10T13:59:55;33.20;78.20
43151;DHT22;28755;51.478;5.702;2023-06-10T14:02:22;33.30;77.10
43151;DHT22;28755;51.478;5.702;2023-06-10T14:04:50;33.10;78.00
43151;DHT22;28755;51.478;5.702;2023-06-10T14:07:16;33.00;77.10
43151;DHT22;28755;51.478;5.702;2023-06-10T14:09:42;32.90;77.60
43151;DHT22;28755;51.478;5.702;2023-06-10T14:12:07;33.00;78.00
43151;DHT22;28755;51.478;5.702;2023-06-10T14:14:34;32.80;78.10
43151;DHT22;28755;51.478;5.702;2023-06-10T14:17:00;32.50;78.60
43151;DHT22;28755;51.478;5.702;2023-06-10T14:19:25;32.60;78.20
43151;DHT22;28755;51.478;5.702;2023-06-10T14:21:51;32.70;78.30
43151;DHT22;28755;51.478;5.702;2023-06-10T14:24:18;32.60;78.70
43151;DHT22;28755;51.478;5.702;2023-06-10T14:26:43;32.80;78.50
43151;DHT22;28755;51.478;5.702;2023-06-10T14:29:09;32.90;78.60
43151;DHT22;28755;51.478;5.702;2023-06-10T14:31:35;33.00;78.90
43151;DHT22;28755;51.478;5.702;2023-06-10T14:34:00;33.00;78.50
43151;DHT22;28755;51.478;5.702;2023-06-10T14:36:26;32.70;79.00
43151;DHT22;28755;51.478;5.702;2023-06-10T14:38:52;32.50;79.20
43151;DHT22;28755;51.478;5.702;2023-06-10T14:41:17;32.40;79.40
43151;DHT22;28755;51.478;5.702;2023-06-10T14:43:43;32.20;79.40
43151;DHT22;28755;51.478;5.702;2023-06-10T14:46:08;32.20;78.90
43151;DHT22;28755;51.478;5.702;2023-06-10T14:48:34;32.30;78.80
43151;DHT22;28755;51.478;5.702;2023-06-10T14:51:00;32.60;79.20
43151;DHT22;28755;51.478;5.702;2023-06-10T14:53:25;32.70;78.80
43151;DHT22;28755;51.478;5.702;2023-06-10T14:55:51;32.70;78.90
43151;DHT22;28755;51.478;5.702;2023-06-10T14:58:16;32.80;79.00
43151;DHT22;28755;51.478;5.702;2023-06-10T15:00:42;32.80;78.80
43151;DHT22;28755;51.478;5.702;2023-06-10T15:03:07;32.80;78.90
43151;DHT22;28755;51.478;5.702;2023-06-10T15:05:33;32.80;79.10
43151;DHT22;28755;51.478;5.702;2023-06-10T15:08:00;32.60;78.50
43151;DHT22;28755;51.478;5.702;2023-06-10T15:10:25;32.40;78.80
43151;DHT22;28755;51.478;5.702;2023-06-10T15:12:51;32.30;79.00
43151;DHT22;28755;51.478;5.702;2023-06-10T15:15:21;32.30;79.20
43151;DHT22;28755;51.478;5.702;2023-06-10T15:17:47;32.40;79.20
43151;DHT22;28755;51.478;5.702;2023-06-10T15:20:13;32.40;79.50
43151;DHT22;28755;51.478;5.702;2023-06-10T15:22:39;32.50;79.40
43151;DHT22;28755;51.478;5.702;2023-06-10T15:25:05;32.50;79.60
43151;DHT22;28755;51.478;5.702;2023-06-10T15:27:31;32.60;80.50
43151;DHT22;28755;51.478;5.702;2023-06-10T15:29:56;32.60;80.50
43151;DHT22;28755;51.478;5.702;2023-06-10T15:32:22;32.40;79.60
43151;DHT22;28755;51.478;5.702;2023-06-10T15:34:47;32.20;80.10
43151;DHT22;28755;51.478;5.702;2023-06-10T15:37:14;31.70;80.00
43151;DHT22;28755;51.478;5.702;2023-06-10T15:39:40;31.60;80.40
43151;DHT22;28755;51.478;5.702;2023-06-10T15:42:06;31.40;80.50
43151;DHT22;28755;51.478;5.702;2023-06-10T15:44:31;31.40;81.00